Terminal Aerodrome Forecast
Issued by NWS

Home | Current Version | Previous Version | Text Only | Print | Product List | Glossary On
Versions: 1 2 3 4 5 6 7 8 9 10 11 12 13
000
FTUS46 KPDT 301700
TAFALW
TAF
KALW 301720Z 3018/0118 22013G20KT P6SM BKN060
     FM010000 23012G18KT P6SM VCSH BKN060
     FM010400 19009KT P6SM FEW050
     FM011000 19006KT P6SM FEW025
     FM011600 21008KT P6SM SCT250=

USA.gov is the U.S. government's official web portal to all federal, state and local government web resources and services.